TimeEST,TemperatureF,Dew PointF,Humidity,Sea Level PressureIn,VisibilityMPH,Wind Direction,Wind SpeedMPH,Gust SpeedMPH,PrecipitationIn,Events,Conditions,WindDirDegrees,DateUTC
12:53 AM,37.0,28.9,73,30.29,10.0,Calm,Calm,-,N/A,,Overcast,0,2013-11-09 05:53:00
1:53 AM,30.9,26.1,82,30.28,10.0,NW,3.5,-,N/A,,Partly Cloudy,310,2013-11-09 06:53:00
2:53 AM,28.9,25.0,85,30.30,10.0,Calm,Calm,-,N/A,,Clear,0,2013-11-09 07:53:00
3:53 AM,28.0,25.0,88,30.31,10.0,Calm,Calm,-,N/A,,Clear,0,2013-11-09 08:53:00
4:53 AM,28.0,25.0,88,30.31,10.0,NW,3.5,-,N/A,,Clear,320,2013-11-09 09:53:00
5:53 AM,28.0,25.0,88,30.31,10.0,Calm,Calm,-,N/A,,Clear,0,2013-11-09 10:53:00
6:53 AM,30.9,28.0,89,30.31,10.0,Calm,Calm,-,N/A,,Mostly Cloudy,0,2013-11-09 11:53:00
7:53 AM,34.0,30.0,85,30.33,10.0,Calm,Calm,-,N/A,,Mostly Cloudy,0,2013-11-09 12:53:00
8:53 AM,37.0,28.0,70,30.30,10.0,SSW,4.6,-,N/A,,Clear,200,2013-11-09 13:53:00
9:53 AM,41.0,28.0,60,30.30,10.0,Variable,3.5,-,N/A,,Clear,0,2013-11-09 14:53:00
10:53 AM,44.1,27.0,51,30.26,10.0,Calm,Calm,-,N/A,,Clear,0,2013-11-09 15:53:00
11:53 AM,48.0,27.0,44,30.21,10.0,South,6.9,-,N/A,,Clear,190,2013-11-09 16:53:00
12:53 PM,50.0,27.0,41,30.16,10.0,South,6.9,-,N/A,,Clear,180,2013-11-09 17:53:00
1:53 PM,52.0,28.0,40,30.12,10.0,South,9.2,-,N/A,,Clear,170,2013-11-09 18:53:00
2:53 PM,48.9,28.0,44,30.10,10.0,South,10.4,-,N/A,,Clear,170,2013-11-09 19:53:00
3:53 PM,48.9,28.0,44,30.07,10.0,South,8.1,-,N/A,,Mostly Cloudy,180,2013-11-09 20:53:00
4:53 PM,48.9,27.0,43,30.05,10.0,South,11.5,-,N/A,,Clear,180,2013-11-09 21:53:00
5:53 PM,46.9,27.0,46,30.05,10.0,South,6.9,-,N/A,,Scattered Clouds,180,2013-11-09 22:53:00
6:53 PM,46.0,27.0,47,30.05,10.0,South,5.8,-,N/A,,Clear,190,2013-11-09 23:53:00
7:53 PM,44.1,28.0,53,30.04,10.0,SW,4.6,-,N/A,,Clear,220,2013-11-10 00:53:00
8:53 PM,42.1,30.0,62,30.02,10.0,SW,3.5,-,N/A,,Overcast,230,2013-11-10 01:53:00
9:53 PM,43.0,28.0,56,30.00,10.0,South,4.6,-,N/A,,Mostly Cloudy,190,2013-11-10 02:53:00
10:53 PM,41.0,28.9,62,29.97,10.0,SSW,3.5,-,N/A,,Scattered Clouds,210,2013-11-10 03:53:00
11:53 PM,39.9,28.0,63,29.96,10.0,Variable,3.5,-,N/A,,Mostly Cloudy,0,2013-11-10 04:53:00